Time;durP1;ratioP1;P1;durP2;ratioP2;P2;SDS_P1;SDS_P2;PMS_P1;PMS_P2;Temp;Humidity;BMP_temperature;BMP_pressure;BME280_temperature;BME280_humidity;BME280_pressure;Samples;Min_cycle;Max_cycle;Signal;HPM_P1;HPM_P2
2022/01/02 00:01:24;;;;;;;4.13;1.97;;;7.60;99.90;;;;;;5113760;28;20448;-54
2022/01/02 00:03:53;;;;;;;3.00;1.60;;;7.70;99.90;;;;;;5112578;28;20440;-55
2022/01/02 00:06:24;;;;;;;3.50;1.77;;;7.70;99.90;;;;;;5112396;28;20804;-53
2022/01/02 00:09:07;;;;;;;4.97;2.00;;;7.70;99.90;;;;;;5114108;28;20452;-51
2022/01/02 00:11:36;;;;;;;2.87;1.40;;;7.70;99.90;;;;;;5113218;28;20452;-54
2022/01/02 00:14:07;;;;;;;4.67;1.97;;;7.70;99.90;;;;;;5112383;28;20483;-53
2022/01/02 00:16:38;;;;;;;5.00;1.67;;;7.70;99.90;;;;;;5113297;28;20452;-55
2022/01/02 00:19:19;;;;;;;7.83;1.83;;;7.70;99.90;;;;;;5116331;28;20452;-50
2022/01/02 00:21:52;;;;;;;7.93;2.20;;;7.70;99.90;;;;;;5118049;28;20441;-52
2022/01/02 00:24:21;;;;;;;5.03;2.20;;;7.70;99.90;;;;;;5117984;28;20445;-55
2022/01/02 00:26:51;;;;;;;4.60;1.60;;;7.80;99.90;;;;;;5119039;28;20503;-51
2022/01/02 00:29:20;;;;;;;4.87;2.30;;;7.80;99.90;;;;;;5119190;28;20468;-50
2022/01/02 00:31:49;;;;;;;3.60;1.80;;;7.80;99.90;;;;;;5118933;28;20447;-53
2022/01/02 00:34:18;;;;;;;5.30;1.70;;;7.70;99.90;;;;;;5118763;28;20451;-53
2022/01/02 00:36:45;;;;;;;3.57;1.40;;;7.60;99.90;;;;;;5120088;28;20525;-57
2022/01/02 00:39:15;;;;;;;4.30;1.70;;;7.60;99.90;;;;;;5119916;28;20448;-52
2022/01/02 00:41:45;;;;;;;6.07;2.73;;;7.60;99.90;;;;;;5119679;28;20887;-55
2022/01/02 00:44:22;;;;;;;6.77;2.43;;;7.70;99.90;;;;;;5119539;28;20539;-56
2022/01/02 00:46:56;;;;;;;2.10;1.40;;;7.60;99.90;;;;;;5120776;28;20441;-54
2022/01/02 00:49:26;;;;;;;3.37;2.53;;;7.60;99.90;;;;;;5120463;28;20450;-53
2022/01/02 00:52:03;;;;;;;4.10;2.30;;;7.60;99.90;;;;;;5120090;28;20437;-49
2022/01/02 00:54:31;;;;;;;3.20;1.50;;;7.60;99.90;;;;;;5120302;28;20444;-51
2022/01/02 00:57:05;;;;;;;8.87;2.37;;;7.50;99.90;;;;;;5119813;28;20887;-53
2022/01/02 00:59:48;;;;;;;2.70;1.60;;;7.50;99.90;;;;;;5119125;28;20952;-54
2022/01/02 01:02:20;;;;;;;6.57;3.03;;;7.40;99.90;;;;;;5119473;28;20875;-54
2022/01/02 01:04:50;;;;;;;5.00;2.10;;;7.40;99.90;;;;;;5118070;28;20525;-50
2022/01/02 01:07:20;;;;;;;4.67;1.53;;;7.50;99.90;;;;;;5118517;28;20459;-53
2022/01/02 01:09:49;;;;;;;3.40;1.20;;;7.50;99.90;;;;;;5118375;28;20514;-53
2022/01/02 01:12:19;;;;;;;5.97;2.80;;;7.50;99.90;;;;;;5117945;28;20453;-54
2022/01/02 01:14:47;;;;;;;2.20;2.00;;;7.50;99.90;;;;;;5117613;28;20452;-54
2022/01/02 01:17:19;;;;;;;2.63;1.43;;;7.50;99.90;;;;;;5117320;28;20483;-54
2022/01/02 01:19:46;;;;;;;3.23;1.40;;;7.50;99.90;;;;;;5119481;28;20509;-53
2022/01/02 01:22:14;;;;;;;4.50;2.07;;;7.60;99.90;;;;;;5119634;28;20510;-53
2022/01/02 01:24:41;;;;;;;6.10;1.63;;;7.70;99.90;;;;;;5119161;28;20879;-53
2022/01/02 01:27:11;;;;;;;3.03;1.60;;;7.60;99.90;;;;;;5119753;28;20475;-49
2022/01/02 01:29:38;;;;;;;5.40;1.77;;;7.50;99.90;;;;;;5118666;28;20459;-54
2022/01/02 01:32:07;;;;;;;3.00;1.47;;;7.50;99.90;;;;;;5117933;28;20452;-52
2022/01/02 01:34:38;;;;;;;3.67;1.50;;;7.50;99.90;;;;;;5117688;28;20895;-49
2022/01/02 01:37:05;;;;;;;4.60;1.70;;;7.50;99.90;;;;;;5118065;28;20452;-49
2022/01/02 01:39:33;;;;;;;6.13;2.07;;;7.40;99.90;;;;;;5119364;28;20460;-54
2022/01/02 01:42:07;;;;;;;4.03;1.33;;;7.30;99.90;;;;;;5119330;28;20451;-49
2022/01/02 01:47:22;;;;;;;3.57;1.70;;;7.30;99.90;;;;;;5090689;28;20416;-54
2022/01/02 01:49:50;;;;;;;4.47;1.97;;;7.30;99.90;;;;;;5117328;28;20456;-52
2022/01/02 01:52:18;;;;;;;3.47;1.97;;;7.30;99.90;;;;;;5118171;28;20800;-52
2022/01/02 01:54:46;;;;;;;3.40;1.30;;;7.30;99.90;;;;;;5118309;28;20953;-55
2022/01/02 01:57:13;;;;;;;5.80;2.20;;;7.30;99.90;;;;;;5118527;28;20441;-51
2022/01/02 01:59:40;;;;;;;2.37;1.30;;;7.30;99.90;;;;;;5118569;28;20452;-55
2022/01/02 02:02:07;;;;;;;4.57;2.23;;;7.20;99.90;;;;;;5118933;28;20484;-53
2022/01/02 02:04:34;;;;;;;3.57;1.40;;;7.10;99.90;;;;;;5118961;28;20448;-51
2022/01/02 02:07:03;;;;;;;2.87;1.77;;;7.10;99.90;;;;;;5118173;28;20444;-50
2022/01/02 02:09:46;;;;;;;2.93;1.87;;;7.10;99.90;;;;;;5119312;28;20448;-51
2022/01/02 02:12:14;;;;;;;3.40;2.03;;;7.10;99.90;;;;;;5118587;28;20444;-51
2022/01/02 02:14:42;;;;;;;3.30;1.40;;;7.10;99.90;;;;;;5118477;28;20455;-53
2022/01/02 02:17:09;;;;;;;5.47;1.90;;;7.20;99.90;;;;;;5118151;28;20455;-50
2022/01/02 02:19:36;;;;;;;3.50;1.90;;;7.20;99.90;;;;;;5117113;28;20738;-51
2022/01/02 02:22:08;;;;;;;2.37;1.43;;;7.10;99.90;;;;;;5118368;28;20451;-48
2022/01/02 02:24:35;;;;;;;4.03;1.47;;;7.10;99.90;;;;;;5117746;28;20739;-49
2022/01/02 02:27:02;;;;;;;4.13;1.33;;;7.00;99.90;;;;;;5116856;28;20780;-51
2022/01/02 02:29:29;;;;;;;2.90;1.57;;;7.00;99.90;;;;;;5117124;28;20470;-52
2022/01/02 02:31:57;;;;;;;5.47;2.13;;;7.10;99.90;;;;;;5114994;28;20626;-53
2022/01/02 02:34:24;;;;;;;3.03;1.17;;;7.10;99.90;;;;;;5115817;28;20440;-51
2022/01/02 02:36:51;;;;;;;2.90;1.20;;;7.10;99.90;;;;;;5115897;28;20451;-52
2022/01/02 02:39:20;;;;;;;2.00;1.20;;;7.10;99.90;;;;;;5116067;28;20531;-54
2022/01/02 02:41:47;;;;;;;2.00;1.00;;;7.10;99.90;;;;;;5116736;28;20935;-52
2022/01/02 02:44:22;;;;;;;2.03;0.90;;;7.10;99.90;;;;;;5117484;28;20448;-52
2022/01/02 02:49:39;;;;;;;1.20;0.80;;;7.30;99.90;;;;;;5117642;28;20593;-53
2022/01/02 02:52:15;;;;;;;1.63;0.50;;;7.40;99.90;;;;;;5117300;28;20487;-53
2022/01/02 02:54:43;;;;;;;1.30;0.60;;;7.50;99.90;;;;;;5117753;28;20452;-56
2022/01/02 02:57:13;;;;;;;1.00;0.70;;;7.60;99.90;;;;;;5118042;28;20452;-54
2022/01/02 02:59:40;;;;;;;2.30;1.00;;;7.60;99.90;;;;;;5117728;28;20847;-55
2022/01/02 03:02:08;;;;;;;1.70;0.73;;;7.60;99.90;;;;;;5117576;28;20793;-51
2022/01/02 03:04:35;;;;;;;1.37;0.70;;;7.50;99.90;;;;;;5116279;28;20449;-52
2022/01/02 03:07:02;;;;;;;0.93;0.70;;;7.50;99.90;;;;;;5115557;28;20441;-51
2022/01/02 03:09:39;;;;;;;1.30;0.70;;;7.60;99.90;;;;;;5116315;28;20466;-54
2022/01/02 03:12:10;;;;;;;1.00;0.50;;;7.60;99.90;;;;;;5116064;28;20447;-55
2022/01/02 03:14:38;;;;;;;1.60;0.80;;;7.50;99.90;;;;;;5115864;28;20770;-53
2022/01/02 03:17:06;;;;;;;1.90;0.90;;;7.50;99.90;;;;;;5116671;28;20463;-54
2022/01/02 03:19:34;;;;;;;0.93;0.70;;;7.60;99.90;;;;;;5117131;28;20447;-55
2022/01/02 03:22:02;;;;;;;1.27;0.70;;;7.50;99.90;;;;;;5117617;28;20491;-50
2022/01/02 03:24:29;;;;;;;1.13;0.70;;;7.50;99.90;;;;;;5117871;28;20439;-54
2022/01/02 03:26:56;;;;;;;1.23;0.60;;;7.60;99.90;;;;;;5117303;28;20537;-54
2022/01/02 03:29:25;;;;;;;1.00;0.70;;;7.60;99.90;;;;;;5117006;28;20441;-51
2022/01/02 03:31:52;;;;;;;1.23;0.60;;;7.60;99.90;;;;;;5117437;28;20445;-51
2022/01/02 03:34:19;;;;;;;1.70;0.60;;;7.60;99.90;;;;;;5117086;28;20807;-52
2022/01/02 03:36:47;;;;;;;1.47;0.70;;;7.60;99.90;;;;;;5116838;28;20444;-52
2022/01/02 03:39:14;;;;;;;1.23;0.70;;;7.60;99.90;;;;;;5116952;28;20441;-55
2022/01/02 03:41:41;;;;;;;0.97;0.70;;;7.50;99.90;;;;;;5117173;28;20472;-54
2022/01/02 03:44:09;;;;;;;1.57;0.70;;;7.50;99.90;;;;;;5117247;28;20441;-55
2022/01/02 03:46:37;;;;;;;1.10;0.77;;;7.50;99.90;;;;;;5117442;28;20495;-53
2022/01/02 03:49:05;;;;;;;2.80;0.70;;;7.50;99.90;;;;;;5116883;28;20455;-55
2022/01/02 03:51:32;;;;;;;1.33;0.60;;;7.60;99.90;;;;;;5117250;28;20870;-54
2022/01/02 03:53:59;;;;;;;1.20;0.60;;;7.70;99.90;;;;;;5115132;28;20444;-54
2022/01/02 03:56:26;;;;;;;1.10;0.70;;;7.70;99.90;;;;;;5114935;28;20463;-53
2022/01/02 03:58:53;;;;;;;1.10;0.60;;;7.70;99.90;;;;;;5114018;28;20451;-55
2022/01/02 04:01:20;;;;;;;1.63;0.70;;;7.70;99.90;;;;;;5114841;28;20580;-55
2022/01/02 04:03:49;;;;;;;1.17;0.70;;;7.70;99.90;;;;;;5114917;28;20814;-55
2022/01/02 04:06:16;;;;;;;1.20;0.60;;;7.70;99.90;;;;;;5114906;28;20907;-51
2022/01/02 04:08:43;;;;;;;1.83;0.60;;;7.70;99.90;;;;;;5115594;28;20868;-56
2022/01/02 04:11:10;;;;;;;1.50;0.70;;;7.80;99.90;;;;;;5116172;28;20693;-50
2022/01/02 04:13:38;;;;;;;1.33;0.60;;;7.90;99.90;;;;;;5116645;28;20452;-53
2022/01/02 04:16:05;;;;;;;1.03;0.60;;;7.80;99.90;;;;;;5116891;28;20452;-50
2022/01/02 04:18:32;;;;;;;7.37;0.90;;;7.80;99.90;;;;;;5116495;28;20943;-53
2022/01/02 04:21:01;;;;;;;0.90;0.53;;;7.80;99.90;;;;;;5116895;28;20485;-54
2022/01/02 04:23:28;;;;;;;1.03;0.53;;;7.70;99.90;;;;;;5116623;28;20451;-55
2022/01/02 04:25:55;;;;;;;0.90;0.50;;;7.80;99.90;;;;;;5116548;28;20981;-55
2022/01/02 04:28:22;;;;;;;1.40;0.90;;;7.70;99.90;;;;;;5116883;28;21402;-55
2022/01/02 04:30:49;;;;;;;1.67;0.90;;;7.60;99.90;;;;;;5116387;28;20448;-53
2022/01/02 04:33:16;;;;;;;2.30;1.10;;;7.50;99.90;;;;;;5116445;28;20868;-54
2022/01/02 04:35:43;;;;;;;1.47;0.80;;;7.50;99.90;;;;;;5116723;28;20457;-49
2022/01/02 04:38:13;;;;;;;2.33;1.33;;;7.40;99.90;;;;;;5116222;28;20487;-55
2022/01/02 04:40:41;;;;;;;2.37;1.40;;;7.50;99.90;;;;;;5116709;28;21126;-49
2022/01/02 04:43:08;;;;;;;2.70;1.17;;;7.40;99.90;;;;;;5116439;28;20906;-49
2022/01/02 04:45:36;;;;;;;3.30;1.50;;;7.30;99.90;;;;;;5116523;28;20453;-49
2022/01/02 04:48:03;;;;;;;3.10;1.20;;;7.00;99.90;;;;;;5116280;28;20494;-49
2022/01/02 04:50:30;;;;;;;1.90;0.90;;;6.90;99.90;;;;;;5116683;28;20550;-55
2022/01/02 04:52:58;;;;;;;3.57;1.80;;;6.80;99.90;;;;;;5116285;28;20440;-54
2022/01/02 04:55:26;;;;;;;4.97;1.67;;;6.80;99.90;;;;;;5115999;28;20505;-53
2022/01/02 04:57:54;;;;;;;4.23;1.20;;;6.70;99.90;;;;;;5116294;28;20540;-54
2022/01/02 05:00:21;;;;;;;3.70;1.20;;;6.80;99.90;;;;;;5116655;28;20456;-49
2022/01/02 05:02:49;;;;;;;3.27;1.40;;;6.90;99.90;;;;;;5116549;28;20444;-51
2022/01/02 05:05:17;;;;;;;2.40;1.60;;;7.00;99.90;;;;;;5118158;28;20864;-50
2022/01/02 05:07:44;;;;;;;1.93;1.33;;;7.00;99.90;;;;;;5119929;28;20448;-54
2022/01/02 05:10:11;;;;;;;2.40;1.33;;;7.00;99.90;;;;;;5119938;28;20459;-55
2022/01/02 05:12:40;;;;;;;3.23;1.10;;;6.90;99.90;;;;;;5120048;28;20472;-55
2022/01/02 05:15:08;;;;;;;3.00;1.20;;;6.80;99.90;;;;;;5120072;28;20448;-54
2022/01/02 05:17:35;;;;;;;1.33;0.90;;;6.70;99.90;;;;;;5119883;28;20925;-49
2022/01/02 05:20:03;;;;;;;1.47;1.17;;;6.80;99.90;;;;;;5119873;28;20456;-51
2022/01/02 05:22:31;;;;;;;1.90;1.07;;;6.80;99.90;;;;;;5119838;28;20578;-51
2022/01/02 05:24:58;;;;;;;2.20;1.07;;;6.80;99.90;;;;;;5119626;28;20963;-50
2022/01/02 05:27:25;;;;;;;1.50;0.90;;;6.80;99.90;;;;;;5117815;28;20483;-50
2022/01/02 05:29:53;;;;;;;2.17;1.30;;;6.90;99.90;;;;;;5116795;28;20729;-56
2022/01/02 05:32:20;;;;;;;10.23;1.27;;;6.80;99.90;;;;;;5116544;28;20741;-51
2022/01/02 05:34:47;;;;;;;2.80;1.30;;;6.70;99.90;;;;;;5116082;28;20513;-52
2022/01/02 05:37:14;;;;;;;3.37;1.53;;;6.50;99.90;;;;;;5116347;28;20451;-50
2022/01/02 05:39:42;;;;;;;2.90;1.10;;;6.60;99.90;;;;;;5116214;28;20456;-50
2022/01/02 05:42:09;;;;;;;2.00;1.00;;;6.70;99.90;;;;;;5117560;28;20829;-50
2022/01/02 05:44:36;;;;;;;2.90;1.53;;;6.70;99.90;;;;;;5119186;28;20457;-51
2022/01/02 05:47:05;;;;;;;3.63;1.70;;;6.70;99.90;;;;;;5117672;28;20420;-52
2022/01/02 05:49:33;;;;;;;2.63;1.73;;;6.70;99.90;;;;;;5117690;28;20695;-50
2022/01/02 05:52:00;;;;;;;2.17;1.50;;;6.80;99.90;;;;;;5117595;28;20875;-51
2022/01/02 05:54:27;;;;;;;3.67;1.70;;;6.70;99.90;;;;;;5117773;28;20495;-51
2022/01/02 05:56:54;;;;;;;3.72;1.90;;;6.70;99.90;;;;;;5117974;28;20473;-54
2022/01/02 05:59:21;;;;;;;1.98;1.20;;;6.50;99.90;;;;;;5118175;28;20843;-49
2022/01/02 06:01:48;;;;;;;2.15;1.30;;;6.60;99.90;;;;;;5117395;28;20485;-50
2022/01/02 06:04:17;;;;;;;1.50;0.90;;;6.60;99.90;;;;;;5116683;28;20416;-51
2022/01/02 06:06:44;;;;;;;1.77;1.00;;;6.70;99.90;;;;;;5116561;28;20481;-55
2022/01/02 06:09:11;;;;;;;1.70;1.00;;;6.80;99.90;;;;;;5117166;28;20859;-54
2022/01/02 06:11:39;;;;;;;1.60;1.00;;;6.80;99.90;;;;;;5117042;28;20488;-54
2022/01/02 06:14:06;;;;;;;1.55;1.00;;;7.00;99.90;;;;;;5115640;28;20420;-55
2022/01/02 06:16:33;;;;;;;1.80;1.00;;;7.00;99.90;;;;;;5115821;28;20515;-54
2022/01/02 06:19:00;;;;;;;1.60;0.90;;;7.00;99.90;;;;;;5115427;28;20731;-53
2022/01/02 06:21:29;;;;;;;1.70;0.90;;;7.10;99.90;;;;;;5116429;28;20432;-53
2022/01/02 06:23:57;;;;;;;1.33;0.90;;;7.10;99.90;;;;;;5116914;28;20707;-53
2022/01/02 06:26:24;;;;;;;1.35;1.00;;;7.10;99.90;;;;;;5117520;28;20431;-54
2022/01/02 06:28:51;;;;;;;1.10;0.90;;;7.10;99.90;;;;;;5118824;28;21240;-51
2022/01/02 06:31:18;;;;;;;1.03;0.70;;;7.10;99.90;;;;;;5118328;28;20440;-50
2022/01/02 06:33:46;;;;;;;2.13;1.00;;;7.10;99.90;;;;;;5117299;28;20539;-52
2022/01/02 06:36:13;;;;;;;1.73;1.00;;;6.90;99.90;;;;;;5118202;28;20540;-52
2022/01/02 06:38:41;;;;;;;2.30;1.10;;;6.80;99.90;;;;;;5117764;28;20502;-55
2022/01/02 06:41:09;;;;;;;2.57;1.10;;;6.80;99.90;;;;;;5117070;28;20456;-50
2022/01/02 06:43:36;;;;;;;3.70;1.10;;;6.70;99.90;;;;;;5116686;28;20951;-49
2022/01/02 06:46:03;;;;;;;6.00;1.20;;;6.80;99.90;;;;;;5116444;28;20523;-50
2022/01/02 06:48:31;;;;;;;1.53;1.00;;;7.00;99.90;;;;;;5116479;28;20793;-53
2022/01/02 06:50:58;;;;;;;3.58;1.60;;;7.10;99.90;;;;;;5115302;28;20430;-50
2022/01/02 06:53:25;;;;;;;2.27;1.20;;;7.10;99.90;;;;;;5116447;28;20199;-52
2022/01/02 06:55:54;;;;;;;1.97;1.30;;;7.10;99.90;;;;;;5117164;28;20529;-55
2022/01/02 06:58:21;;;;;;;2.33;1.40;;;7.20;99.90;;;;;;5117835;28;20476;-51
2022/01/02 07:00:49;;;;;;;2.10;1.20;;;7.20;99.90;;;;;;5117864;28;20463;-54
2022/01/02 07:03:16;;;;;;;2.07;1.20;;;7.00;99.90;;;;;;5115988;28;20530;-51
2022/01/02 07:05:43;;;;;;;3.07;1.10;;;6.80;99.90;;;;;;5117340;28;20460;-57
2022/01/02 07:08:12;;;;;;;2.17;1.03;;;6.80;99.90;;;;;;5116934;28;20531;-55
2022/01/02 07:10:39;;;;;;;2.70;1.20;;;6.80;99.90;;;;;;5117772;28;20885;-50
2022/01/02 07:13:07;;;;;;;2.27;1.70;;;6.90;99.90;;;;;;5117724;28;20801;-53
2022/01/02 07:15:34;;;;;;;3.00;1.10;;;7.00;99.90;;;;;;5117936;28;20876;-55
2022/01/02 07:18:02;;;;;;;2.30;1.20;;;7.10;99.90;;;;;;5117380;28;20453;-50
2022/01/02 07:20:29;;;;;;;3.20;1.20;;;7.10;99.90;;;;;;5114135;28;20506;-53
2022/01/02 07:22:56;;;;;;;1.70;1.07;;;7.10;99.90;;;;;;5114108;28;20779;-50
2022/01/02 07:25:23;;;;;;;2.43;1.20;;;7.20;99.90;;;;;;5114379;28;20453;-49
2022/01/02 07:27:51;;;;;;;1.53;1.10;;;7.10;99.90;;;;;;5113724;28;20479;-50
2022/01/02 07:30:20;;;;;;;3.97;0.90;;;6.90;99.90;;;;;;5113987;28;20449;-54
2022/01/02 07:32:47;;;;;;;1.60;1.10;;;6.70;99.90;;;;;;5114213;28;20436;-53
2022/01/02 07:35:14;;;;;;;2.00;1.47;;;6.70;99.90;;;;;;5116354;28;20547;-52
2022/01/02 07:37:41;;;;;;;2.90;1.10;;;6.70;99.90;;;;;;5116551;28;20445;-50
2022/01/02 07:40:10;;;;;;;2.37;1.40;;;6.50;99.90;;;;;;5116529;28;20449;-53
2022/01/02 07:42:37;;;;;;;2.50;1.13;;;6.50;99.90;;;;;;5116866;28;20488;-53
2022/01/02 07:45:05;;;;;;;2.27;1.07;;;6.50;99.90;;;;;;5116990;28;20505;-54
2022/01/02 07:47:34;;;;;;;2.70;1.67;;;6.70;99.90;;;;;;5116419;28;20416;-54
2022/01/02 07:50:01;;;;;;;1.75;1.23;;;6.80;99.90;;;;;;5115986;28;20427;-54
2022/01/02 07:52:28;;;;;;;2.08;1.33;;;6.90;99.90;;;;;;5115038;28;20433;-51
2022/01/02 07:54:55;;;;;;;3.10;1.60;;;6.90;99.90;;;;;;5106322;28;20430;-55
2022/01/02 07:57:22;;;;;;;3.05;1.50;;;6.90;99.90;;;;;;5101036;28;20424;-50
2022/01/02 07:59:50;;;;;;;3.25;1.50;;;6.90;99.90;;;;;;5095881;28;20430;-53
2022/01/02 08:02:20;;;;;;;2.75;1.30;;;6.80;99.90;;;;;;5105632;28;20864;-49
2022/01/02 08:04:48;;;;;;;3.38;1.40;;;6.80;99.90;;;;;;5098720;28;20498;-50
2022/01/02 08:07:16;;;;;;;2.40;1.33;;;6.80;99.90;;;;;;5110598;28;20438;-52
2022/01/02 08:09:43;;;;;;;3.40;1.40;;;6.80;99.90;;;;;;5097604;28;20508;-53
2022/01/02 08:12:13;;;;;;;2.05;1.33;;;6.80;99.90;;;;;;5098882;28;20787;-49
2022/01/02 08:14:41;;;;;;;2.13;1.50;;;6.80;99.90;;;;;;5105845;28;20490;-53
2022/01/02 08:17:08;;;;;;;2.70;1.50;;;6.80;99.90;;;;;;5104632;28;20843;-53
2022/01/02 08:19:35;;;;;;;2.53;1.50;;;6.80;99.90;;;;;;5099365;28;20429;-51
2022/01/02 08:22:04;;;;;;;2.88;1.40;;;7.00;99.90;;;;;;5111666;28;20493;-55
2022/01/02 08:24:32;;;;;;;2.70;1.40;;;7.00;99.90;;;;;;5100454;28;20543;-54
2022/01/02 08:26:59;;;;;;;2.70;1.50;;;7.10;99.90;;;;;;5105141;28;20559;-51
2022/01/02 08:29:26;;;;;;;1.75;1.20;;;7.10;99.90;;;;;;5108392;28;20487;-49
2022/01/02 08:31:54;;;;;;;1.90;1.40;;;7.10;99.90;;;;;;5113683;28;20417;-50
2022/01/02 08:34:23;;;;;;;2.10;1.40;;;7.20;99.90;;;;;;5098643;28;20427;-54
2022/01/02 08:36:53;;;;;;;2.00;1.30;;;7.20;99.90;;;;;;5105942;28;20418;-52
2022/01/02 08:39:22;;;;;;;3.10;1.60;;;7.30;99.90;;;;;;5107598;28;20469;-54
2022/01/02 08:41:49;;;;;;;2.53;1.40;;;7.40;99.90;;;;;;5118385;28;20436;-53
2022/01/02 08:44:16;;;;;;;1.80;1.30;;;7.50;99.90;;;;;;5101605;28;20408;-54
2022/01/02 08:46:44;;;;;;;2.00;1.30;;;7.60;99.90;;;;;;5110172;28;20875;-53
2022/01/02 08:49:11;;;;;;;2.00;1.30;;;7.60;99.90;;;;;;5104433;28;20426;-55
2022/01/02 08:51:38;;;;;;;3.20;1.50;;;7.80;99.90;;;;;;5112630;28;20416;-50
2022/01/02 08:54:06;;;;;;;2.33;1.35;;;7.80;99.90;;;;;;5101052;28;20435;-52
2022/01/02 08:56:35;;;;;;;2.03;1.30;;;7.90;99.90;;;;;;5110389;28;20536;-51
2022/01/02 08:59:04;;;;;;;1.90;1.30;;;8.00;99.90;;;;;;5108460;28;20477;-56
2022/01/02 09:01:33;;;;;;;2.30;1.40;;;8.20;99.90;;;;;;5104474;28;20721;-51
2022/01/02 09:04:01;;;;;;;2.30;1.20;;;8.20;99.90;;;;;;5115014;28;21006;-50
2022/01/02 09:06:28;;;;;;;1.92;1.20;;;8.20;99.90;;;;;;5103445;28;20428;-54
2022/01/02 09:08:56;;;;;;;2.03;1.20;;;8.20;99.90;;;;;;5108980;28;20508;-54
2022/01/02 09:11:23;;;;;;;2.47;1.35;;;8.30;99.90;;;;;;5111025;28;20435;-52
2022/01/02 09:13:52;;;;;;;2.90;1.60;;;8.40;99.90;;;;;;5100954;28;20487;-55
2022/01/02 09:16:19;;;;;;;1.60;1.20;;;8.60;99.90;;;;;;5113501;28;20726;-52
2022/01/02 09:18:47;;;;;;;2.05;1.20;;;8.70;99.90;;;;;;5105764;28;20420;-53
2022/01/02 09:21:18;;;;;;;1.77;1.23;;;8.90;99.90;;;;;;5105479;28;20472;-53
2022/01/02 09:23:45;;;;;;;1.80;1.20;;;8.90;99.90;;;;;;5114051;28;20482;-52
2022/01/02 09:26:13;;;;;;;2.05;1.70;;;8.90;99.90;;;;;;5114119;28;20417;-53
2022/01/02 09:28:40;;;;;;;1.90;1.20;;;8.90;99.90;;;;;;5104883;28;20448;-50
2022/01/02 09:31:09;;;;;;;2.00;1.20;;;9.00;99.90;;;;;;5106522;28;20426;-52
2022/01/02 09:33:36;;;;;;;1.80;1.30;;;9.00;99.90;;;;;;5112872;28;20410;-54
2022/01/02 09:36:04;;;;;;;2.42;1.55;;;9.10;99.90;;;;;;5102209;28;20422;-51
2022/01/02 09:38:31;;;;;;;2.10;1.20;;;9.10;99.90;;;;;;5117655;28;20798;-50
2022/01/02 09:41:00;;;;;;;2.10;1.30;;;9.20;99.90;;;;;;5112030;28;20809;-54
2022/01/02 09:43:27;;;;;;;1.63;1.15;;;9.10;99.90;;;;;;5098855;28;20441;-53
2022/01/02 09:45:55;;;;;;;3.30;2.10;;;9.10;99.90;;;;;;5108872;28;20692;-55
2022/01/02 09:48:24;;;;;;;1.90;1.20;;;9.00;99.90;;;;;;5098730;28;20795;-55
2022/01/02 09:50:52;;;;;;;1.80;1.40;;;9.00;99.90;;;;;;5107181;28;20412;-53
2022/01/02 09:53:19;;;;;;;2.00;1.20;;;9.10;99.90;;;;;;5115569;28;20424;-53
2022/01/02 09:55:47;;;;;;;2.03;1.10;;;9.10;99.90;;;;;;5113612;28;20465;-55
2022/01/02 09:58:14;;;;;;;1.70;1.20;;;9.20;99.90;;;;;;5098324;28;20421;-52
2022/01/02 10:00:44;;;;;;;2.13;1.20;;;9.30;99.90;;;;;;5101667;28;20471;-55
2022/01/02 10:03:12;;;;;;;2.20;1.20;;;9.20;99.90;;;;;;5108732;28;20847;-53
2022/01/02 10:05:57;;;;;;;2.00;1.50;;;9.20;99.90;;;;;;5106192;28;20486;-53
2022/01/02 10:08:28;;;;;;;3.45;1.40;;;9.30;99.90;;;;;;5107122;28;20863;-53
2022/01/02 10:11:00;;;;;;;2.58;1.45;;;9.40;99.90;;;;;;5098412;28;20450;-54
2022/01/02 10:13:45;;;;;;;2.50;1.33;;;9.50;99.90;;;;;;5103040;28;20432;-55
2022/01/02 10:16:30;;;;;;;1.95;1.40;;;9.60;99.90;;;;;;5106271;28;20495;-53
2022/01/02 10:18:59;;;;;;;1.98;1.40;;;9.70;99.90;;;;;;5106165;28;20406;-51
2022/01/02 10:21:38;;;;;;;2.37;1.20;;;9.70;99.90;;;;;;5103419;28;20430;-55
2022/01/02 10:24:16;;;;;;;2.70;1.40;;;9.70;99.90;;;;;;5088969;28;20496;-51
2022/01/02 10:27:11;;;;;;;4.53;1.40;;;9.70;99.90;;;;;;5109013;28;20433;-54
2022/01/02 10:29:45;;;;;;;2.10;1.40;;;9.60;99.90;;;;;;5111080;28;20882;-52
2022/01/02 10:32:33;;;;;;;2.40;1.20;;;9.60;99.90;;;;;;5099502;28;20851;-54
2022/01/02 10:35:16;;;;;;;1.65;1.10;;;9.60;99.90;;;;;;5106789;28;20789;-52
2022/01/02 10:37:50;;;;;;;2.40;1.20;;;9.60;99.90;;;;;;5112538;28;20475;-55
2022/01/02 10:40:38;;;;;;;2.00;1.30;;;9.70;99.90;;;;;;5101617;28;20421;-53
2022/01/02 10:43:10;;;;;;;2.58;1.30;;;9.70;99.90;;;;;;5107219;28;20437;-53
2022/01/02 10:45:40;;;;;;;4.40;1.40;;;9.60;99.90;;;;;;5109650;28;20412;-54
2022/01/02 10:48:10;;;;;;;2.30;1.40;;;9.60;99.90;;;;;;5096121;28;20715;-54
2022/01/02 10:50:58;;;;;;;1.80;1.50;;;9.70;99.90;;;;;;5107028;28;20457;-54
2022/01/02 10:53:28;;;;;;;2.57;1.67;;;9.80;99.90;;;;;;5093332;28;20422;-56
2022/01/02 10:55:59;;;;;;;2.00;1.20;;;9.90;99.90;;;;;;5111349;28;20503;-56
2022/01/02 10:58:27;;;;;;;1.75;1.25;;;10.00;99.90;;;;;;5114088;28;20427;-56
2022/01/02 11:01:01;;;;;;;3.65;1.50;;;10.00;99.90;;;;;;5104821;28;20421;-52
2022/01/02 11:03:30;;;;;;;2.03;1.30;;;10.00;99.90;;;;;;5113192;28;20530;-51
2022/01/02 11:06:06;;;;;;;2.22;1.70;;;10.00;99.90;;;;;;5115300;28;20420;-55
2022/01/02 11:08:36;;;;;;;1.65;1.33;;;9.90;99.90;;;;;;5113726;28;20428;-53
2022/01/02 11:11:06;;;;;;;2.00;1.30;;;9.90;99.90;;;;;;5112435;28;20420;-55
2022/01/02 11:13:35;;;;;;;2.63;1.63;;;10.00;99.90;;;;;;5110197;28;20430;-55
2022/01/02 11:16:04;;;;;;;2.70;1.45;;;10.10;99.90;;;;;;5111128;28;20488;-52
2022/01/02 11:18:36;;;;;;;2.50;1.48;;;10.20;99.90;;;;;;5102069;28;20556;-55
2022/01/02 11:21:08;;;;;;;1.40;0.80;;;10.30;99.90;;;;;;5108215;28;20428;-56
2022/01/02 11:23:49;;;;;;;1.10;0.60;;;10.50;99.90;;;;;;5111888;28;20487;-55
2022/01/02 11:26:23;;;;;;;1.23;0.65;;;10.80;99.90;;;;;;5103556;28;20489;-55
2022/01/02 11:28:51;;;;;;;0.80;0.60;;;11.10;99.90;;;;;;5097671;28;20764;-56
2022/01/02 11:31:30;;;;;;;1.10;0.60;;;11.40;99.90;;;;;;5110989;28;20418;-53
2022/01/02 11:34:01;;;;;;;1.48;0.70;;;11.50;99.90;;;;;;5102244;28;20419;-56
2022/01/02 11:36:36;;;;;;;1.75;0.63;;;11.60;99.90;;;;;;5113504;28;20762;-51
2022/01/02 11:39:12;;;;;;;0.70;0.50;;;11.70;99.90;;;;;;5096903;28;20516;-54
2022/01/02 11:41:47;;;;;;;0.90;0.50;;;11.70;99.90;;;;;;5096150;28;20473;-54
2022/01/02 11:44:16;;;;;;;0.80;0.50;;;11.80;99.90;;;;;;5102817;28;20816;-55
2022/01/02 11:46:52;;;;;;;0.90;0.60;;;11.80;99.90;;;;;;5106380;28;20737;-51
2022/01/02 11:49:27;;;;;;;1.00;0.50;;;11.90;99.90;;;;;;5108381;28;20740;-52
2022/01/02 11:52:06;;;;;;;0.82;0.50;;;11.90;99.90;;;;;;5098582;28;20704;-51
2022/01/02 11:54:57;;;;;;;1.20;0.70;;;12.00;99.90;;;;;;5111176;28;20473;-52
2022/01/02 11:57:46;;;;;;;1.25;0.40;;;12.20;99.90;;;;;;5097940;28;20502;-56
2022/01/02 12:00:36;;;;;;;0.50;0.30;;;12.40;99.90;;;;;;5103472;28;20849;-56
2022/01/02 12:03:07;;;;;;;0.47;0.30;;;12.60;99.90;;;;;;5110890;28;20743;-54
2022/01/02 12:05:36;;;;;;;1.40;0.40;;;12.80;99.90;;;;;;5097982;28;20854;-56
2022/01/02 12:08:13;;;;;;;0.70;0.40;;;12.90;99.90;;;;;;5103992;28;20414;-53
2022/01/02 12:10:47;;;;;;;1.27;0.32;;;13.10;99.90;;;;;;5104977;28;20416;-56
2022/01/02 12:13:24;;;;;;;0.50;0.30;;;13.20;99.90;;;;;;5095428;28;20414;-57
2022/01/02 12:16:09;;;;;;;0.50;0.20;;;13.30;99.90;;;;;;5108845;28;20560;-56
2022/01/02 12:19:00;;;;;;;0.50;0.30;;;13.40;99.90;;;;;;5104177;28;20428;-54
2022/01/02 12:21:28;;;;;;;0.70;0.30;;;13.40;99.90;;;;;;5100227;28;20425;-55
2022/01/02 12:24:07;;;;;;;0.60;0.30;;;13.40;99.90;;;;;;5104074;28;20434;-55
2022/01/02 12:26:39;;;;;;;0.57;0.30;;;13.50;99.90;;;;;;5099578;28;20763;-51
2022/01/02 12:29:12;;;;;;;0.60;0.30;;;13.60;99.90;;;;;;5110416;28;20441;-55
2022/01/02 12:31:43;;;;;;;0.60;0.35;;;13.70;99.90;;;;;;5100612;28;20424;-50
2022/01/02 12:34:13;;;;;;;0.82;0.40;;;13.70;99.90;;;;;;5104002;28;20523;-56
2022/01/02 12:36:42;;;;;;;1.45;0.60;;;13.80;99.90;;;;;;5112002;28;20416;-56
2022/01/02 12:39:12;;;;;;;1.10;0.35;;;13.80;99.90;;;;;;5111940;28;20476;-55
2022/01/02 12:41:46;;;;;;;0.70;0.30;;;13.90;99.90;;;;;;5112727;28;20416;-56
2022/01/02 12:44:16;;;;;;;1.52;0.30;;;14.00;99.90;;;;;;5098093;28;20852;-57
2022/01/02 12:46:45;;;;;;;0.50;0.30;;;14.00;99.90;;;;;;5107812;28;20609;-56
2022/01/02 12:49:17;;;;;;;0.50;0.30;;;14.10;99.90;;;;;;5097470;28;20433;-55
2022/01/02 12:51:46;;;;;;;0.75;0.40;;;14.20;99.90;;;;;;5091011;28;20418;-53
2022/01/02 12:54:18;;;;;;;0.50;0.30;;;14.30;99.90;;;;;;5091754;28;20508;-52
2022/01/02 12:56:48;;;;;;;0.50;0.30;;;14.40;99.90;;;;;;5105871;28;20423;-57
2022/01/02 12:59:24;;;;;;;0.90;0.40;;;14.40;99.90;;;;;;5111713;28;20428;-52
2022/01/02 13:02:04;;;;;;;0.73;0.40;;;14.50;99.90;;;;;;5108776;28;20872;-54
2022/01/02 13:04:36;;;;;;;0.70;0.40;;;14.50;99.90;;;;;;5097501;28;20530;-56
2022/01/02 13:07:08;;;;;;;1.57;0.30;;;14.50;99.90;;;;;;5111521;28;21119;-50
2022/01/02 13:09:37;;;;;;;0.50;0.30;;;14.50;99.90;;;;;;5109880;28;20489;-56
2022/01/02 13:12:12;;;;;;;0.60;0.30;;;14.50;99.90;;;;;;5109222;28;20416;-52
2022/01/02 13:14:44;;;;;;;0.60;0.30;;;14.50;99.90;;;;;;5090452;28;20417;-56